Terminal Aerodrome Forecast
Issued by NWS

Home | Current Version | Previous Version | Text Only | Print | Product List | Glossary On
Versions: 1 2 3 4 5 6 7 8 9 10 11 12 13 14 15 16 17 18 19 20 21
830
FTUS46 KPDT 191858 AAA
TAFYKM
TAF AMD
KYKM 191858Z 1919/2018 VRB05KT 2SM BR OVC004
     FM192000 13003KT 4SM BR OVC006
     FM200300 27006KT 4SM BR OVC010=

USA.gov is the U.S. government's official web portal to all federal, state and local government web resources and services.